Terminal Aerodrome Forecast
Issued by NWS New Orleans/Baton Rouge, LA

Home | Current Version | Previous Version | Text Only | Print | Product List | Glossary On
Versions: 1 2 3 4 5 6 7 8 9 10 11 12 13 14 15 16 17 18 19 20 21 22 23 24 25
000
FTUS44 KLIX 261700
TAFNEW
TAF
KNEW 261721Z 2618/2718 30005KT P6SM SCT030
     FM262000 22010KT P6SM SCT030
     FM270700 23006KT P6SM SCT250
     FM271300 30007KT P6SM SCT035=

USA.gov is the U.S. government's official web portal to all federal, state and local government web resources and services.